Time;durP1;ratioP1;P1;durP2;ratioP2;P2;SDS_P1;SDS_P2;PMS_P1;PMS_P2;Temp;Humidity;BMP_temperature;BMP_pressure;BME280_temperature;BME280_humidity;BME280_pressure;Samples;Min_cycle;Max_cycle;Signal;HPM_P1;HPM_P2
2021/07/30 00:00:58;;;;;;;16.32;5.83;;;;;;;23.75;69.72;100406.27;1760539;80;21051;-84
2021/07/30 00:03:26;;;;;;;8.45;4.62;;;;;;;23.80;69.34;100403.10;1780359;79;21394;-84
2021/07/30 00:05:53;;;;;;;9.33;4.90;;;;;;;23.78;69.15;100407.02;1745857;82;21018;-84
2021/07/30 00:08:22;;;;;;;12.37;4.80;;;;;;;23.71;69.32;100403.48;1754327;81;21767;-84
2021/07/30 00:10:55;;;;;;;10.98;5.15;;;;;;;23.67;69.67;100393.00;1762139;81;21589;-84
2021/07/30 00:13:22;;;;;;;7.05;4.70;;;;;;;23.65;70.10;100390.41;1761718;81;21564;-84
2021/07/30 00:15:49;;;;;;;12.45;4.70;;;;;;;23.65;70.46;100386.78;1767193;80;21008;-84
2021/07/30 00:18:28;;;;;;;12.65;5.00;;;;;;;23.65;70.73;100390.41;1765813;79;20971;-83
2021/07/30 00:20:56;;;;;;;14.13;5.70;;;;;;;23.69;70.94;100378.14;1776348;80;21599;-84
2021/07/30 00:23:23;;;;;;;13.95;5.55;;;;;;;23.68;71.20;100377.79;1776172;80;21402;-83
2021/07/30 00:25:51;;;;;;;12.75;5.28;;;;;;;23.66;71.50;100367.50;1769821;79;21451;-83
2021/07/30 00:28:19;;;;;;;13.90;5.42;;;;;;;23.63;71.87;100362.33;1775610;80;21948;-83
2021/07/30 00:30:47;;;;;;;10.20;5.78;;;;;;;23.63;72.12;100369.17;1772050;80;21456;-83
2021/07/30 00:33:14;;;;;;;11.80;5.28;;;;;;;23.60;72.29;100362.63;1776941;79;21090;-83
2021/07/30 00:35:42;;;;;;;9.58;5.37;;;;;;;23.58;72.55;100371.50;1797796;79;21484;-83
2021/07/30 00:38:09;;;;;;;13.22;5.00;;;;;;;23.57;72.66;100376.61;1761859;80;21091;-83
2021/07/30 00:40:37;;;;;;;14.20;5.55;;;;;;;23.56;72.81;100380.36;1750789;79;21032;-83
2021/07/30 00:43:06;;;;;;;10.93;5.60;;;;;;;23.56;72.95;100378.98;1762262;80;21113;-83
2021/07/30 00:45:34;;;;;;;14.18;5.70;;;;;;;23.55;73.03;100384.11;1743715;80;21790;-83
2021/07/30 00:48:01;;;;;;;11.18;5.78;;;;;;;23.52;73.22;100385.74;1759848;79;21033;-83
2021/07/30 00:50:29;;;;;;;13.90;6.60;;;;;;;23.45;73.49;100382.23;1735669;81;21062;-84
2021/07/30 00:52:56;;;;;;;16.55;6.28;;;;;;;23.38;73.90;100378.38;1769519;80;21040;-83
2021/07/30 00:55:23;;;;;;;11.35;6.00;;;;;;;23.31;74.36;100379.45;1762703;81;21590;-84
2021/07/30 00:57:52;;;;;;;11.85;5.87;;;;;;;23.27;74.68;100382.63;1760562;80;21510;-83
2021/07/30 01:00:20;;;;;;;11.25;5.75;;;;;;;23.23;75.14;100383.89;1757366;80;21087;-83
2021/07/30 01:02:47;;;;;;;8.90;5.22;;;;;;;23.15;75.60;100380.03;1755639;80;21119;-83
2021/07/30 01:05:15;;;;;;;15.40;5.62;;;;;;;23.07;76.09;100375.77;1746657;80;21104;-83
2021/07/30 01:07:42;;;;;;;11.95;5.12;;;;;;;22.97;76.55;100379.02;1724330;80;21496;-83
2021/07/30 01:10:10;;;;;;;12.70;5.30;;;;;;;22.91;76.90;100377.72;1748257;80;21978;-84
2021/07/30 01:12:38;;;;;;;16.67;6.45;;;;;;;22.87;77.17;100383.96;1762318;80;21079;-83
2021/07/30 01:15:07;;;;;;;11.22;5.58;;;;;;;22.82;77.51;100378.59;1764586;80;21098;-83
2021/07/30 01:17:34;;;;;;;13.68;5.95;;;;;;;22.76;77.84;100385.48;1750167;80;21028;-83
2021/07/30 01:20:04;;;;;;;17.40;6.08;;;;;;;22.72;78.26;100379.95;1742627;80;21080;-83
2021/07/30 01:22:32;;;;;;;13.32;6.03;;;;;;;22.66;78.78;100380.48;1732887;80;22178;-83
2021/07/30 01:25:00;;;;;;;13.35;6.03;;;;;;;22.63;78.97;100382.14;1730845;80;21006;-83
2021/07/30 01:27:27;;;;;;;14.83;6.33;;;;;;;22.57;79.20;100373.52;1741609;80;21592;-83
2021/07/30 01:29:54;;;;;;;12.65;5.95;;;;;;;22.53;79.46;100376.17;1770144;80;21105;-83
2021/07/30 01:32:22;;;;;;;10.35;5.40;;;;;;;22.50;79.70;100375.58;1753154;80;21075;-83
2021/07/30 01:34:49;;;;;;;13.78;5.30;;;;;;;22.42;80.05;100372.16;1754843;79;21596;-83
2021/07/30 01:37:18;;;;;;;12.58;6.08;;;;;;;22.38;80.47;100374.32;1763581;80;21079;-83
2021/07/30 01:39:45;;;;;;;10.18;5.17;;;;;;;22.33;80.68;100365.17;1728199;81;21055;-83
2021/07/30 01:42:13;;;;;;;13.13;5.90;;;;;;;22.32;80.94;100368.03;1767462;80;21094;-83
2021/07/30 01:44:40;;;;;;;11.18;5.17;;;;;;;22.29;81.04;100362.37;1761744;80;21035;-83
2021/07/30 01:47:10;;;;;;;10.13;5.55;;;;;;;22.24;81.28;100364.66;1763120;80;21083;-84
2021/07/30 01:49:38;;;;;;;14.23;5.95;;;;;;;22.21;81.56;100366.28;1770528;79;21519;-83
2021/07/30 01:52:06;;;;;;;9.85;5.72;;;;;;;22.22;81.70;100372.62;1771357;80;21522;-84
2021/07/30 01:54:33;;;;;;;15.90;5.78;;;;;;;22.17;81.85;100373.02;1753814;80;21020;-83
2021/07/30 01:57:01;;;;;;;12.95;5.78;;;;;;;22.13;82.08;100371.09;1774038;79;20984;-83
2021/07/30 01:59:28;;;;;;;13.28;6.22;;;;;;;22.12;82.25;100375.31;1771436;79;21747;-83
2021/07/30 02:01:56;;;;;;;16.40;5.30;;;;;;;22.09;82.35;100372.87;1763554;79;21094;-83
2021/07/30 02:04:24;;;;;;;11.40;5.60;;;;;;;22.04;82.49;100372.78;1737489;79;21030;-83
2021/07/30 02:06:52;;;;;;;13.03;6.00;;;;;;;22.01;82.72;100370.33;1765589;80;20995;-83
2021/07/30 02:09:20;;;;;;;10.82;5.67;;;;;;;21.99;82.87;100379.65;1737375;80;21067;-83
2021/07/30 02:11:51;;;;;;;9.10;5.20;;;;;;;21.94;83.07;100370.50;1771753;79;21801;-83
2021/07/30 02:14:17;;;;;;;8.05;4.72;;;;;;;21.89;83.30;100372.78;1753163;79;21492;-83
2021/07/30 02:16:49;;;;;;;9.98;5.33;;;;;;;21.84;83.58;100369.61;1756176;79;20984;-83
2021/07/30 02:19:17;;;;;;;10.13;5.00;;;;;;;21.78;83.89;100372.89;1758843;79;21556;-83
2021/07/30 02:21:47;;;;;;;16.25;5.78;;;;;;;21.71;84.23;100375.30;1771808;79;21108;-83
2021/07/30 02:24:15;;;;;;;13.95;5.87;;;;;;;21.65;84.46;100375.33;1787663;79;22781;-83
2021/07/30 02:26:42;;;;;;;10.65;5.20;;;;;;;21.62;84.75;100382.39;1771347;79;21499;-83
2021/07/30 02:29:09;;;;;;;10.70;5.30;;;;;;;21.58;84.90;100381.78;1772365;79;21070;-83
2021/07/30 02:31:37;;;;;;;12.25;5.37;;;;;;;21.54;85.03;100387.62;1758076;80;21039;-83
2021/07/30 02:34:04;;;;;;;14.55;5.53;;;;;;;21.49;85.29;100388.54;1724580;81;21096;-83
2021/07/30 02:36:31;;;;;;;11.00;5.42;;;;;;;21.42;85.49;100390.45;1742309;80;21801;-83
2021/07/30 02:38:59;;;;;;;13.05;5.75;;;;;;;21.38;85.89;100385.38;1754999;80;21022;-83
2021/07/30 02:41:27;;;;;;;12.18;5.10;;;;;;;21.35;86.21;100385.17;1759276;80;21048;-83
2021/07/30 02:43:57;;;;;;;11.83;5.60;;;;;;;21.31;86.44;100394.10;1773523;80;21021;-84
2021/07/30 02:46:25;;;;;;;8.45;5.72;;;;;;;21.29;86.64;100393.86;1762729;80;22105;-83
2021/07/30 02:48:53;;;;;;;9.48;5.40;;;;;;;21.24;86.90;100394.76;1775110;80;21078;-84
2021/07/30 02:51:21;;;;;;;18.92;5.58;;;;;;;21.21;87.11;100399.11;1775609;80;21576;-83
2021/07/30 02:53:48;;;;;;;9.15;5.00;;;;;;;21.16;87.48;100401.74;1771938;80;21356;-83
2021/07/30 02:56:15;;;;;;;14.68;5.60;;;;;;;21.13;87.78;100399.28;1766859;80;21036;-83
2021/07/30 02:58:43;;;;;;;9.33;5.30;;;;;;;21.11;88.10;100409.45;1752647;80;21074;-83
2021/07/30 03:01:10;;;;;;;8.98;5.78;;;;;;;21.10;88.45;100396.80;1759538;80;21114;-83
2021/07/30 03:03:38;;;;;;;8.23;5.45;;;;;;;21.08;88.73;100395.22;1739959;80;21115;-83
2021/07/30 03:06:05;;;;;;;15.15;6.00;;;;;;;21.11;88.94;100401.28;1739479;80;21059;-83
2021/07/30 03:08:32;;;;;;;10.95;5.67;;;;;;;21.15;88.91;100394.56;1729472;80;21080;-83
2021/07/30 03:11:00;;;;;;;8.25;5.33;;;;;;;21.20;88.80;100397.39;1748573;80;21060;-84
2021/07/30 03:13:29;;;;;;;9.53;5.45;;;;;;;21.20;88.66;100405.56;1755001;79;21048;-83
2021/07/30 03:15:57;;;;;;;8.33;5.28;;;;;;;21.18;88.58;100410.66;1766628;80;21086;-84
2021/07/30 03:18:28;;;;;;;9.45;5.30;;;;;;;21.19;88.65;100411.50;1775816;80;20869;-83
2021/07/30 03:20:55;;;;;;;13.98;5.33;;;;;;;21.21;88.39;100414.11;1766782;79;21012;-83
2021/07/30 03:23:23;;;;;;;16.87;5.80;;;;;;;21.23;88.25;100418.93;1763827;80;21012;-83
2021/07/30 03:25:51;;;;;;;21.97;6.37;;;;;;;21.23;88.09;100419.81;1760354;81;21672;-84
2021/07/30 03:28:18;;;;;;;16.17;6.45;;;;;;;21.24;88.02;100420.66;1756989;81;21039;-84
2021/07/30 03:30:46;;;;;;;14.25;6.05;;;;;;;21.25;87.97;100418.30;1745738;81;20938;-83
2021/07/30 03:33:13;;;;;;;21.62;7.10;;;;;;;21.25;88.05;100428.72;1768249;81;21411;-84
2021/07/30 03:35:42;;;;;;;12.23;6.30;;;;;;;21.22;88.05;100422.17;1752316;81;21270;-83
2021/07/30 03:38:09;;;;;;;18.12;7.40;;;;;;;21.23;88.23;100424.38;1756075;80;21146;-84
2021/07/30 03:40:37;;;;;;;13.98;7.22;;;;;;;21.25;88.31;100419.66;1760048;80;20979;-84
2021/07/30 03:43:05;;;;;;;14.55;7.08;;;;;;;21.23;88.23;100422.53;1754688;80;21059;-84
2021/07/30 03:45:34;;;;;;;15.38;7.95;;;;;;;21.23;88.27;100421.66;1746762;80;21008;-84
2021/07/30 03:48:01;;;;;;;15.90;7.05;;;;;;;21.23;88.36;100420.30;1753593;80;21014;-84
2021/07/30 03:50:30;;;;;;;11.83;7.60;;;;;;;21.21;88.25;100420.92;1742813;81;21479;-84
2021/07/30 03:53:01;;;;;;;19.73;7.97;;;;;;;21.18;88.35;100435.67;1755647;80;21113;-84
2021/07/30 03:55:34;;;;;;;12.33;7.05;;;;;;;21.16;88.53;100429.00;1769342;80;21044;-84
2021/07/30 03:58:01;;;;;;;21.90;8.08;;;;;;;21.16;88.71;100434.45;1750398;81;21466;-84
2021/07/30 04:00:29;;;;;;;14.75;7.80;;;;;;;21.17;88.91;100430.73;1754748;81;21096;-85
2021/07/30 04:02:56;;;;;;;18.60;8.03;;;;;;;21.15;88.76;100435.45;1763169;80;21594;-84
2021/07/30 04:05:23;;;;;;;15.08;7.65;;;;;;;21.14;88.97;100432.84;1747007;82;21057;-84
2021/07/30 04:07:51;;;;;;;21.12;8.70;;;;;;;21.16;89.24;100442.62;1757945;80;21087;-84
2021/07/30 04:10:19;;;;;;;16.67;7.97;;;;;;;21.20;89.17;100445.09;1742105;81;21048;-84
2021/07/30 04:12:47;;;;;;;17.85;8.33;;;;;;;21.24;89.29;100441.10;1742569;81;21456;-84
2021/07/30 04:15:15;;;;;;;19.10;9.30;;;;;;;21.30;88.98;100437.84;1744081;80;21526;-85
2021/07/30 04:17:42;;;;;;;17.87;9.08;;;;;;;21.31;88.78;100443.66;1765122;80;21119;-84
2021/07/30 04:20:12;;;;;;;15.55;8.78;;;;;;;21.31;88.75;100440.45;1785376;79;21028;-84
2021/07/30 04:22:39;;;;;;;16.52;8.78;;;;;;;21.40;88.68;100445.62;1775827;79;21099;-84
2021/07/30 04:25:08;;;;;;;13.85;8.53;;;;;;;21.50;88.45;100442.08;1775907;80;21059;-84
2021/07/30 04:27:36;;;;;;;18.37;9.63;;;;;;;21.64;88.32;100448.58;1725431;82;21513;-84
2021/07/30 04:30:04;;;;;;;18.82;9.68;;;;;;;21.74;87.11;100446.80;1801443;79;21496;-85
2021/07/30 04:32:32;;;;;;;18.42;8.98;;;;;;;21.82;86.85;100445.28;1772730;79;21086;-84
2021/07/30 04:34:59;;;;;;;14.73;8.88;;;;;;;21.93;86.81;100446.55;1788633;79;21009;-85
2021/07/30 04:37:27;;;;;;;16.50;9.25;;;;;;;22.08;86.04;100442.11;1745452;81;21074;-84
2021/07/30 04:39:54;;;;;;;22.80;8.93;;;;;;;22.21;85.16;100444.09;1779747;80;21108;-84
2021/07/30 04:42:22;;;;;;;19.40;8.83;;;;;;;22.33;84.65;100440.27;1781057;79;21478;-85
2021/07/30 04:44:50;;;;;;;16.10;9.25;;;;;;;22.50;83.51;100454.31;1778801;79;21037;-84
2021/07/30 04:47:17;;;;;;;11.53;8.23;;;;;;;22.61;82.86;100447.35;1788101;79;21080;-86
2021/07/30 04:49:45;;;;;;;13.15;8.35;;;;;;;22.73;82.00;100452.71;1779215;80;21024;-85
2021/07/30 04:52:12;;;;;;;21.25;9.00;;;;;;;22.79;81.42;100456.23;1764599;80;21094;-85
2021/07/30 04:54:40;;;;;;;18.35;8.73;;;;;;;22.85;81.35;100454.30;1783502;79;21043;-85
2021/07/30 04:57:10;;;;;;;23.18;8.80;;;;;;;22.97;81.14;100458.29;1779929;79;21086;-85
2021/07/30 04:59:38;;;;;;;19.07;8.18;;;;;;;23.10;80.03;100469.83;1756098;80;21340;-85
2021/07/30 05:02:09;;;;;;;16.77;8.40;;;;;;;23.18;79.73;100457.66;1782682;79;21048;-85
2021/07/30 05:04:36;;;;;;;15.53;8.95;;;;;;;23.28;78.76;100467.75;1779774;79;21096;-85
2021/07/30 05:07:05;;;;;;;20.70;7.87;;;;;;;23.37;77.86;100465.54;1792233;79;21107;-85
2021/07/30 05:09:32;;;;;;;19.15;7.30;;;;;;;23.46;78.02;100469.28;1760279;80;21539;-85
2021/07/30 05:12:00;;;;;;;16.02;7.80;;;;;;;23.62;77.46;100478.27;1748302;80;21053;-85
2021/07/30 05:14:27;;;;;;;16.95;7.85;;;;;;;23.74;77.04;100469.39;1768398;80;20972;-85
2021/07/30 05:16:55;;;;;;;14.07;7.87;;;;;;;23.90;76.86;100472.88;1786832;79;21507;-85
2021/07/30 05:19:23;;;;;;;20.00;9.13;;;;;;;24.07;74.88;100486.84;1777847;79;21035;-85
2021/07/30 05:21:50;;;;;;;18.30;8.08;;;;;;;24.14;74.94;100479.75;1748833;81;21071;-84
2021/07/30 05:24:17;;;;;;;12.65;7.78;;;;;;;24.17;74.33;100472.11;1757812;80;21067;-85
2021/07/30 05:26:46;;;;;;;17.40;7.90;;;;;;;24.22;74.53;100473.05;1784077;80;21020;-85
2021/07/30 05:29:15;;;;;;;20.00;8.35;;;;;;;24.31;73.64;100474.86;1753996;80;21948;-85
2021/07/30 05:31:44;;;;;;;29.42;9.35;;;;;;;24.36;72.98;100472.17;1756473;80;21028;-85
2021/07/30 05:34:11;;;;;;;21.93;8.53;;;;;;;24.43;73.35;100476.06;1756848;80;21028;-85
2021/07/30 05:36:38;;;;;;;19.80;8.03;;;;;;;24.57;73.31;100475.53;1774618;79;21041;-85
2021/07/30 05:39:06;;;;;;;14.10;7.17;;;;;;;24.69;71.53;100483.04;1703220;82;21099;-85
2021/07/30 05:41:33;;;;;;;16.77;8.50;;;;;;;24.71;71.90;100485.64;1760706;80;21693;-86
2021/07/30 05:44:00;;;;;;;13.95;7.85;;;;;;;24.70;71.55;100481.18;1765731;79;21544;-85
2021/07/30 05:46:28;;;;;;;15.80;8.35;;;;;;;24.70;71.73;100490.77;1754058;79;21039;-85
2021/07/30 05:48:57;;;;;;;11.22;8.03;;;;;;;24.70;72.07;100486.14;1769035;80;21031;-85
2021/07/30 05:51:25;;;;;;;16.37;8.28;;;;;;;24.79;71.62;100493.98;1773669;80;21064;-85
2021/07/30 05:53:53;;;;;;;19.57;7.87;;;;;;;24.91;71.69;100491.05;1774159;79;21053;-85
2021/07/30 05:56:21;;;;;;;15.68;7.47;;;;;;;25.07;71.64;100495.31;1776071;79;21024;-85
2021/07/30 05:58:49;;;;;;;18.77;7.33;;;;;;;25.27;70.69;100495.17;1750046;80;21586;-85
2021/07/30 06:01:17;;;;;;;20.32;6.97;;;;;;;25.44;69.47;100488.83;1742524;80;21055;-85
2021/07/30 06:03:45;;;;;;;18.90;6.90;;;;;;;25.51;67.38;100501.94;1748378;80;21106;-86
2021/07/30 06:06:13;;;;;;;18.37;6.92;;;;;;;25.49;68.18;100492.52;1758026;80;21124;-85
2021/07/30 06:08:42;;;;;;;16.70;6.67;;;;;;;25.57;68.22;100488.45;1759491;80;21019;-85
2021/07/30 06:11:10;;;;;;;14.73;7.17;;;;;;;25.67;67.70;100487.52;1757962;80;21003;-87
2021/07/30 06:13:38;;;;;;;18.75;7.25;;;;;;;25.78;67.47;100494.64;1766871;79;21089;-87
2021/07/30 06:16:11;;;;;;;16.12;6.78;;;;;;;25.88;67.00;100494.02;1758000;79;21070;-85
2021/07/30 06:18:40;;;;;;;14.30;6.25;;;;;;;25.97;66.60;100491.66;1765741;79;21493;-82
2021/07/30 06:21:09;;;;;;;18.87;6.92;;;;;;;26.05;66.33;100484.52;1780873;79;21059;-84
2021/07/30 06:23:37;;;;;;;12.58;6.65;;;;;;;26.14;66.54;100483.53;1740096;80;21070;-84
2021/07/30 06:26:05;;;;;;;16.10;6.85;;;;;;;26.36;66.05;100485.39;1747751;80;21069;-84
2021/07/30 06:28:33;;;;;;;17.45;6.80;;;;;;;26.53;65.58;100470.71;1728661;80;21063;-80
2021/07/30 06:30:59;;;;;;;14.15;5.67;;;;;;;26.66;64.27;100474.90;1740225;80;21097;-86
2021/07/30 06:33:28;;;;;;;11.05;5.90;;;;;;;26.71;63.28;100478.00;1775010;79;21017;-84
2021/07/30 06:35:57;;;;;;;10.65;6.30;;;;;;;26.74;62.71;100487.28;1768099;79;21051;-83
2021/07/30 06:38:24;;;;;;;15.85;6.12;;;;;;;26.72;63.00;100474.22;1750695;80;21274;-84
2021/07/30 06:40:52;;;;;;;17.67;5.97;;;;;;;26.80;63.36;100478.36;1752994;80;21052;-84
2021/07/30 06:43:20;;;;;;;19.35;6.42;;;;;;;26.97;62.81;100480.70;1751574;80;21841;-84
2021/07/30 06:45:48;;;;;;;16.73;6.37;;;;;;;27.12;62.53;100469.02;1755305;80;21076;-85
2021/07/30 06:48:15;;;;;;;19.30;6.40;;;;;;;27.28;61.48;100484.17;1751309;80;21068;-84
2021/07/30 06:50:45;;;;;;;23.62;5.95;;;;;;;27.39;61.01;100478.85;1754247;80;21055;-82
2021/07/30 06:53:12;;;;;;;17.60;6.20;;;;;;;27.46;60.59;100478.50;1746609;80;21158;-83
2021/07/30 06:55:39;;;;;;;21.33;6.50;;;;;;;27.55;60.61;100482.69;1751851;80;21772;-83
2021/07/30 06:58:06;;;;;;;16.75;5.65;;;;;;;27.63;60.33;100481.30;1756793;80;21869;-84
2021/07/30 07:00:33;;;;;;;29.20;6.60;;;;;;;27.68;59.29;100484.38;1751605;80;21052;-83
2021/07/30 07:03:03;;;;;;;22.87;6.78;;;;;;;27.68;60.02;100483.53;1744018;80;21103;-83
2021/07/30 07:05:33;;;;;;;19.98;6.15;;;;;;;27.71;59.90;100482.66;1754218;80;21045;-84
2021/07/30 07:08:03;;;;;;;15.15;6.05;;;;;;;27.79;59.93;100494.19;1769166;79;21515;-83
2021/07/30 07:10:30;;;;;;;20.00;6.45;;;;;;;27.80;59.30;100489.55;1743323;79;21062;-85
2021/07/30 07:12:59;;;;;;;21.00;7.35;;;;;;;27.81;58.68;100494.87;1743257;80;21043;-85
2021/07/30 07:15:28;;;;;;;30.17;6.92;;;;;;;27.85;58.67;100495.39;1780459;78;21062;-84
2021/07/30 07:17:57;;;;;;;25.20;6.85;;;;;;;27.92;59.25;100493.66;1769518;79;20978;-84
2021/07/30 07:20:24;;;;;;;13.13;6.58;;;;;;;28.02;59.67;100494.34;1765823;80;21160;-84
2021/07/30 07:22:51;;;;;;;12.03;7.20;;;;;;;28.21;60.40;100486.76;1771121;79;21110;-84
2021/07/30 07:25:18;;;;;;;19.42;7.53;;;;;;;28.47;60.19;100489.77;1760649;80;21100;-85
2021/07/30 07:27:45;;;;;;;12.82;7.15;;;;;;;28.64;58.98;100486.41;1756828;80;21091;-84
2021/07/30 07:30:12;;;;;;;17.32;7.30;;;;;;;28.68;59.07;100485.55;1772281;79;21064;-85
2021/07/30 07:32:39;;;;;;;14.55;7.30;;;;;;;28.77;59.05;100488.59;1773633;80;21623;-85
2021/07/30 07:35:07;;;;;;;20.10;7.50;;;;;;;28.91;59.37;100488.91;1770302;79;21577;-85
2021/07/30 07:37:34;;;;;;;14.50;6.62;;;;;;;29.03;57.65;100501.23;1749339;80;21040;-85
2021/07/30 07:40:07;;;;;;;13.93;7.33;;;;;;;28.98;57.57;100492.66;1749307;80;21564;-86
2021/07/30 07:42:35;;;;;;;;;;;;;;;29.00;58.01;100496.08;1756979;80;20980;-87
2021/07/30 07:45:03;;;;;;;18.20;7.05;;;;;;;29.12;58.21;100496.02;1776810;80;21118;-88
2021/07/30 07:47:31;;;;;;;30.80;8.20;;;;;;;29.24;58.24;100495.08;1748925;80;21004;-89
2021/07/30 07:49:58;;;;;;;14.43;7.50;;;;;;;29.39;57.93;100500.66;1747792;80;21517;-90
2021/07/30 07:52:25;;;;;;;16.50;7.58;;;;;;;29.48;58.09;100497.85;1782222;80;21469;-89
2021/07/30 07:54:52;;;;;;;16.85;7.85;;;;;;;29.58;57.66;100503.47;1782157;80;20991;-90
2021/07/30 07:57:20;;;;;;;20.85;7.72;;;;;;;29.62;56.93;100499.82;1772377;80;21133;-86
2021/07/30 07:59:47;;;;;;;29.52;7.67;;;;;;;29.56;56.52;100492.28;1766477;79;21186;-85
2021/07/30 08:02:13;;;;;;;30.80;6.95;;;;;;;29.45;56.13;100497.19;1752067;79;21465;-86
2021/07/30 08:04:40;;;;;;;21.80;6.90;;;;;;;29.32;56.76;100485.88;1766479;79;21394;-84
2021/07/30 08:07:10;;;;;;;19.32;6.37;;;;;;;29.23;56.86;100495.25;1743992;80;21126;-88
2021/07/30 08:09:37;;;;;;;12.98;6.10;;;;;;;29.11;56.27;100486.02;1769689;78;21766;-89
2021/07/30 08:12:05;;;;;;;22.05;7.53;;;;;;;29.03;57.04;100483.30;1743887;80;21579;-86
2021/07/30 08:14:33;;;;;;;13.38;7.40;;;;;;;29.11;56.83;100486.02;1761242;80;21515;-86
2021/07/30 08:17:00;;;;;;;17.55;6.30;;;;;;;29.12;57.04;100477.20;1757474;80;21063;-83
2021/07/30 08:19:27;;;;;;;21.82;6.90;;;;;;;29.18;56.35;100493.56;1754319;80;21063;-83
2021/07/30 08:21:55;;;;;;;25.88;6.25;;;;;;;29.15;55.82;100482.36;1766961;80;21130;-83
2021/07/30 08:24:23;;;;;;;11.83;6.08;;;;;;;29.12;56.43;100480.84;1763343;80;21062;-84
2021/07/30 08:26:50;;;;;;;21.20;6.97;;;;;;;29.14;56.17;100482.89;1753894;80;21092;-83
2021/07/30 08:29:17;;;;;;;10.80;6.50;;;;;;;29.16;56.17;100480.81;1761885;80;21517;-84
2021/07/30 08:31:45;;;;;;;13.90;6.30;;;;;;;29.12;55.97;100490.50;1758134;80;21055;-83
2021/07/30 08:34:13;;;;;;;8.88;5.97;;;;;;;29.11;55.69;100476.37;1751313;80;21080;-84
2021/07/30 08:36:40;;;;;;;15.23;6.83;;;;;;;29.12;56.45;100475.33;1750820;79;21047;-84
2021/07/30 08:39:07;;;;;;;17.00;7.28;;;;;;;29.21;55.51;100475.25;1757000;80;21146;-84
2021/07/30 08:41:35;;;;;;;16.50;6.87;;;;;;;29.20;55.48;100473.54;1776328;78;21130;-84
2021/07/30 08:44:02;;;;;;;19.70;7.15;;;;;;;29.18;56.21;100484.78;1751237;80;21037;-84
2021/07/30 08:46:31;;;;;;;11.68;6.47;;;;;;;29.22;56.24;100471.45;1746316;80;21552;-84
2021/07/30 08:48:59;;;;;;;18.15;6.87;;;;;;;29.33;56.13;100482.08;1749135;80;21211;-85
2021/07/30 08:51:28;;;;;;;8.93;6.75;;;;;;;29.40;55.68;100489.08;1745678;80;21110;-85
2021/07/30 08:53:56;;;;;;;11.48;6.60;;;;;;;29.46;55.86;100488.39;1752800;79;21401;-85
2021/07/30 08:56:23;;;;;;;8.58;6.80;;;;;;;29.49;55.28;100483.00;1789996;79;21036;-85
2021/07/30 08:58:50;;;;;;;14.28;5.97;;;;;;;29.48;55.03;100493.71;1738002;81;21753;-85
2021/07/30 09:01:19;;;;;;;17.20;6.80;;;;;;;29.54;54.59;100473.66;1745146;80;21007;-82
2021/07/30 09:03:46;;;;;;;10.50;6.15;;;;;;;29.65;53.99;100482.03;1754396;80;21052;-83
2021/07/30 09:06:17;;;;;;;9.35;6.62;;;;;;;29.59;53.41;100491.91;1738284;81;21031;-82
2021/07/30 09:09:05;;;;;;;8.83;6.08;;;;;;;29.55;53.62;100474.00;1738819;80;21575;-82
2021/07/30 09:11:39;;;;;;;11.73;5.75;;;;;;;29.59;53.75;100480.86;1766524;80;21048;-82
2021/07/30 09:14:09;;;;;;;10.82;5.00;;;;;;;29.62;53.69;100490.16;1755041;80;21822;-83
2021/07/30 09:16:53;;;;;;;12.07;5.90;;;;;;;29.61;52.28;100480.15;1758991;80;21575;-83
2021/07/30 09:19:22;;;;;;;5.90;5.28;;;;;;;29.62;52.66;100479.61;1761105;81;21552;-80
2021/07/30 09:22:03;;;;;;;12.03;6.10;;;;;;;29.63;51.74;100479.44;1769924;79;21102;-83
2021/07/30 09:24:40;;;;;;;15.05;6.40;;;;;;;29.64;52.30;100483.91;1759454;80;21147;-82
2021/07/30 09:27:10;;;;;;;10.23;5.85;;;;;;;29.68;52.53;100479.73;1761305;80;21007;-80
2021/07/30 09:29:39;;;;;;;15.88;5.60;;;;;;;29.75;51.67;100483.15;1766602;78;21589;-83
2021/07/30 09:32:26;;;;;;;7.85;5.30;;;;;;;29.82;51.46;100478.58;1741687;80;21103;-83
2021/07/30 09:34:53;;;;;;;14.47;6.42;;;;;;;29.90;51.68;100472.96;1720706;80;21168;-54
2021/07/30 09:37:24;;;;;;;9.25;4.85;;;;;;;29.93;51.42;100485.02;1691285;81;21147;-53
2021/07/30 09:39:53;;;;;;;14.30;5.30;;;;;;;29.95;50.26;100471.87;1681613;82;21460;-55
2021/07/30 09:42:23;;;;;;;7.12;4.87;;;;;;;29.95;50.44;100463.58;1708582;82;20940;-54
2021/07/30 09:44:55;;;;;;;11.90;4.87;;;;;;;29.98;50.44;100476.17;1705341;82;21042;-54
2021/07/30 09:47:29;;;;;;;11.28;4.50;;;;;;;29.94;48.74;100472.91;1707619;81;21495;-54
2021/07/30 09:50:05;;;;;;;8.15;4.70;;;;;;;29.93;48.50;100479.48;1701867;82;21123;-54
2021/07/30 09:52:36;;;;;;;8.98;4.97;;;;;;;30.01;48.94;100486.37;1689546;82;21102;-53
2021/07/30 09:55:06;;;;;;;6.50;4.30;;;;;;;30.09;48.71;100483.17;1715339;81;21117;-54
2021/07/30 09:57:37;;;;;;;8.90;4.60;;;;;;;30.08;47.82;100475.93;1711147;81;20975;-54
2021/07/30 10:00:10;;;;;;;13.48;4.58;;;;;;;29.98;47.40;100483.95;1719698;81;21619;-54
2021/07/30 10:02:41;;;;;;;4.65;4.15;;;;;;;29.96;48.77;100470.85;1717434;81;21065;-54
2021/07/30 10:05:13;;;;;;;7.97;4.58;;;;;;;29.97;48.15;100468.42;1714406;81;21536;-54
2021/07/30 10:07:41;;;;;;;5.90;4.33;;;;;;;30.01;48.06;100482.22;1711220;81;21383;-54
2021/07/30 10:10:17;;;;;;;7.28;4.72;;;;;;;29.96;47.81;100474.13;1715236;81;20950;-53
2021/07/30 10:12:50;;;;;;;;;;;;;;;29.92;48.49;100483.30;1723540;82;21311;-54
2021/07/30 10:15:17;;;;;;;6.28;4.83;;;;;;;29.93;48.52;100471.20;1724530;81;21097;-53
2021/07/30 10:17:47;;;;;;;7.03;4.47;;;;;;;29.91;48.31;100456.72;1728245;82;21151;-54
2021/07/30 10:20:15;;;;;;;10.35;4.90;;;;;;;29.92;47.50;100466.72;1719591;81;21028;-54
2021/07/30 10:22:55;;;;;;;5.20;4.53;;;;;;;29.96;47.80;100447.36;1719695;81;21377;-53
2021/07/30 10:25:32;;;;;;;7.17;5.08;;;;;;;30.04;48.26;100452.48;1717283;81;21097;-53
2021/07/30 10:28:04;;;;;;;6.15;4.95;;;;;;;30.07;47.95;100470.06;1715922;81;21133;-54
2021/07/30 10:30:55;;;;;;;7.28;4.90;;;;;;;30.04;48.50;100445.58;1718476;81;21666;-53
2021/07/30 10:33:37;;;;;;;10.38;4.75;;;;;;;30.05;48.70;100448.13;1723254;81;22112;-54
2021/07/30 10:36:13;;;;;;;8.00;5.03;;;;;;;30.09;47.81;100458.30;1712931;81;21168;-53
2021/07/30 10:38:41;;;;;;;6.65;5.17;;;;;;;30.12;48.49;100456.02;1711460;81;22288;-54
2021/07/30 10:41:12;;;;;;;7.78;4.90;;;;;;;30.11;48.32;100448.78;1692375;82;21778;-55
2021/07/30 10:44:05;;;;;;;5.33;4.60;;;;;;;30.15;47.77;100439.05;1705088;82;21121;-54
2021/07/30 10:46:32;;;;;;;5.75;4.62;;;;;;;30.18;47.55;100432.30;1711524;81;21026;-54
2021/07/30 10:48:59;;;;;;;9.35;4.75;;;;;;;30.14;47.79;100443.38;1708432;81;21152;-56
2021/07/30 10:51:32;;;;;;;8.83;4.87;;;;;;;30.12;48.08;100431.14;1705049;81;21067;-53
2021/07/30 10:54:03;;;;;;;11.40;4.85;;;;;;;30.17;47.22;100436.08;1711501;81;21162;-54
2021/07/30 10:56:40;;;;;;;5.90;4.75;;;;;;;30.19;46.39;100439.54;1716237;81;21010;-53
2021/07/30 10:59:07;;;;;;;25.55;5.47;;;;;;;30.16;46.93;100424.69;1712013;81;21078;-54
2021/07/30 11:01:43;;;;;;;16.00;5.42;;;;;;;30.15;47.54;100422.97;1708405;81;21584;-53
2021/07/30 11:04:11;;;;;;;10.53;5.08;;;;;;;30.16;47.83;100419.16;1716658;81;21103;-54
2021/07/30 11:06:46;;;;;;;9.10;4.95;;;;;;;30.25;48.07;100418.54;1711971;81;21138;-58
2021/07/30 11:09:17;;;;;;;8.23;4.97;;;;;;;30.25;47.36;100416.65;1715844;81;21035;-53
2021/07/30 11:11:55;;;;;;;8.35;4.70;;;;;;;30.21;46.53;100418.09;1719732;81;21059;-53
2021/07/30 11:14:27;;;;;;;5.58;4.80;;;;;;;30.21;45.11;100422.73;1720578;81;21059;-54
2021/07/30 11:16:59;;;;;;;5.58;4.70;;;;;;;30.19;46.44;100419.31;1719003;81;21128;-53
2021/07/30 11:19:32;;;;;;;8.45;5.20;;;;;;;30.17;47.17;100418.11;1721366;81;21124;-55
2021/07/30 11:22:02;;;;;;;9.98;4.92;;;;;;;30.15;47.82;100416.06;1722142;81;21078;-54
2021/07/30 11:24:29;;;;;;;12.33;5.92;;;;;;;30.13;48.10;100398.81;1726685;81;21499;-54
2021/07/30 11:26:56;;;;;;;6.05;4.80;;;;;;;30.20;47.69;100401.17;1718736;81;21105;-55